Time;durP1;ratioP1;P1;durP2;ratioP2;P2;SDS_P1;SDS_P2;PMS_P1;PMS_P2;Temp;Humidity;BMP_temperature;BMP_pressure;BME280_temperature;BME280_humidity;BME280_pressure;Samples;Min_cycle;Max_cycle;Signal;HPM_P1;HPM_P2
2023/10/25 00:01:37;;;;;;;23.40;9.80;;;10.80;83.00;;;;;;5089992;28;20639;-78
2023/10/25 00:04:07;;;;;;;24.10;11.20;;;10.80;82.90;;;;;;5091626;28;20456;-79
2023/10/25 00:06:35;;;;;;;22.77;12.33;;;10.80;82.90;;;;;;5097759;28;20606;-79
2023/10/25 00:09:04;;;;;;;29.03;14.40;;;10.80;83.00;;;;;;5074262;28;20542;-80
2023/10/25 00:11:32;;;;;;;17.60;9.50;;;10.80;83.00;;;;;;5082717;28;20478;-80
2023/10/25 00:14:01;;;;;;;13.23;8.27;;;10.80;83.00;;;;;;5095554;28;20461;-81
2023/10/25 00:16:29;;;;;;;17.33;8.97;;;10.80;83.00;;;;;;5085310;28;20459;-79
2023/10/25 00:18:57;;;;;;;16.80;10.53;;;10.80;83.00;;;;;;5091078;28;20471;-78
2023/10/25 00:21:27;;;;;;;14.70;8.37;;;10.80;83.10;;;;;;5071773;28;20453;-76
2023/10/25 00:23:55;;;;;;;14.67;8.70;;;10.80;83.20;;;;;;5089957;28;20478;-78
2023/10/25 00:26:23;;;;;;;14.00;7.70;;;10.90;83.30;;;;;;5090072;28;20548;-78
2023/10/25 00:28:52;;;;;;;28.90;15.13;;;10.90;83.30;;;;;;5090210;28;20457;-78
2023/10/25 00:31:20;;;;;;;22.70;12.30;;;11.00;83.30;;;;;;5089259;28;20481;-78
2023/10/25 00:33:48;;;;;;;17.10;10.87;;;11.00;83.20;;;;;;5087650;28;20453;-80
2023/10/25 00:36:16;;;;;;;22.50;11.83;;;11.00;83.20;;;;;;5074069;28;20453;-78
2023/10/25 00:38:47;;;;;;;24.97;12.53;;;11.10;83.10;;;;;;5076404;28;21172;-79
2023/10/25 00:41:15;;;;;;;23.90;12.73;;;11.10;83.10;;;;;;5078746;28;20472;-79
2023/10/25 00:43:43;;;;;;;18.40;9.20;;;11.10;83.10;;;;;;5088326;28;20552;-78
2023/10/25 00:46:12;;;;;;;15.33;7.93;;;11.10;83.20;;;;;;5090494;28;20974;-79
2023/10/25 00:48:44;;;;;;;16.77;8.40;;;11.10;83.00;;;;;;5072228;28;20524;-78
2023/10/25 00:51:13;;;;;;;13.27;8.30;;;11.10;83.00;;;;;;5092569;28;20569;-78
2023/10/25 00:53:46;;;;;;;28.37;13.97;;;11.10;83.10;;;;;;5088602;28;20465;-80
2023/10/25 00:56:26;;;;;;;23.03;10.90;;;11.20;83.00;;;;;;5072465;28;20510;-78
2023/10/25 00:58:55;;;;;;;26.93;12.57;;;11.20;83.00;;;;;;5087630;28;20896;-78
2023/10/25 01:01:25;;;;;;;14.77;9.20;;;11.20;82.90;;;;;;5086924;28;20476;-79
2023/10/25 01:03:53;;;;;;;16.43;9.40;;;11.20;82.90;;;;;;5094204;28;20452;-78
2023/10/25 01:06:22;;;;;;;13.83;7.90;;;11.20;82.90;;;;;;5097446;28;20560;-78
2023/10/25 01:08:52;;;;;;;17.87;10.03;;;11.20;82.90;;;;;;5069512;28;20465;-78
2023/10/25 01:11:21;;;;;;;15.30;8.10;;;11.20;82.80;;;;;;5093414;28;20479;-79
2023/10/25 01:13:50;;;;;;;10.50;6.73;;;11.20;82.70;;;;;;5089946;28;20545;-79
2023/10/25 01:16:20;;;;;;;12.10;6.97;;;11.20;82.60;;;;;;5092986;28;20454;-78
2023/10/25 01:18:49;;;;;;;13.37;7.83;;;11.10;82.70;;;;;;5072216;28;20536;-80
2023/10/25 01:21:18;;;;;;;30.63;13.30;;;11.10;82.80;;;;;;5094725;28;20452;-78
2023/10/25 01:23:52;;;;;;;20.40;11.57;;;11.10;82.90;;;;;;5092635;28;20938;-79
2023/10/25 01:26:20;;;;;;;14.80;8.87;;;11.20;82.90;;;;;;5084112;28;20475;-77
2023/10/25 01:28:48;;;;;;;13.80;8.77;;;11.20;83.00;;;;;;5074144;28;20547;-77
2023/10/25 01:31:16;;;;;;;17.53;8.37;;;11.20;82.90;;;;;;5066992;28;20571;-76
2023/10/25 01:33:45;;;;;;;13.50;8.70;;;11.20;82.80;;;;;;5083089;28;20871;-77
2023/10/25 01:36:13;;;;;;;16.43;10.00;;;11.20;82.90;;;;;;5092397;28;20484;-78
2023/10/25 01:38:43;;;;;;;28.90;14.20;;;11.20;82.80;;;;;;5090060;28;20547;-80
2023/10/25 01:41:15;;;;;;;20.17;13.23;;;11.20;82.80;;;;;;5091671;28;20453;-77
2023/10/25 01:43:44;;;;;;;33.33;21.20;;;11.10;82.90;;;;;;5087929;28;20456;-78
2023/10/25 01:46:12;;;;;;;29.83;21.17;;;11.20;83.00;;;;;;5088210;28;20464;-78
2023/10/25 01:48:40;;;;;;;28.87;17.83;;;11.20;83.00;;;;;;5061528;28;20811;-77
2023/10/25 01:51:09;;;;;;;23.63;14.97;;;11.20;83.20;;;;;;5076587;28;20480;-78
2023/10/25 01:53:38;;;;;;;19.10;13.20;;;11.20;83.40;;;;;;5088803;28;20534;-77
2023/10/25 01:56:06;;;;;;;121.63;41.13;;;11.20;83.50;;;;;;5065850;28;20457;-77
2023/10/25 01:58:35;;;;;;;103.20;39.20;;;11.30;83.40;;;;;;5052569;28;20468;-78
2023/10/25 02:01:07;;;;;;;61.40;28.70;;;11.30;83.40;;;;;;5074833;28;20483;-78
2023/10/25 02:03:35;;;;;;;44.80;21.00;;;11.30;83.50;;;;;;5072776;28;20546;-78
2023/10/25 02:06:12;;;;;;;33.50;16.30;;;11.40;83.50;;;;;;5090592;28;20560;-78
2023/10/25 02:08:41;;;;;;;19.40;14.03;;;11.40;83.60;;;;;;5085145;28;20464;-78
2023/10/25 02:11:09;;;;;;;18.13;12.53;;;11.40;83.60;;;;;;5095139;28;21078;-79
2023/10/25 02:13:39;;;;;;;22.77;13.80;;;11.50;83.60;;;;;;5090354;28;20797;-79
2023/10/25 02:16:15;;;;;;;26.53;15.20;;;11.50;83.50;;;;;;5088337;28;20469;-78
2023/10/25 02:18:43;;;;;;;40.27;18.23;;;11.50;83.40;;;;;;5066608;28;20470;-78
2023/10/25 02:21:12;;;;;;;70.70;30.43;;;11.50;83.50;;;;;;5073696;28;20460;-78
2023/10/25 02:23:42;;;;;;;32.00;18.30;;;11.50;83.40;;;;;;5068366;28;20488;-79
2023/10/25 02:26:10;;;;;;;37.70;17.80;;;11.50;83.40;;;;;;5085596;28;21053;-78
2023/10/25 02:28:39;;;;;;;26.97;16.90;;;11.50;83.50;;;;;;5092319;28;20552;-78
2023/10/25 02:31:07;;;;;;;24.93;14.77;;;11.50;83.70;;;;;;5069410;28;20542;-78
2023/10/25 02:33:37;;;;;;;23.43;13.63;;;11.50;83.80;;;;;;5068826;28;20472;-78
2023/10/25 02:36:07;;;;;;;25.77;13.93;;;11.60;83.70;;;;;;5073714;28;20801;-78
2023/10/25 02:38:35;;;;;;;20.17;12.90;;;11.60;83.80;;;;;;5070926;28;20502;-78
2023/10/25 02:41:03;;;;;;;20.13;13.60;;;11.60;83.80;;;;;;5064371;28;20540;-78
2023/10/25 02:43:32;;;;;;;21.20;14.50;;;11.60;83.80;;;;;;5087709;28;20502;-78
2023/10/25 02:46:07;;;;;;;22.90;14.53;;;11.60;83.80;;;;;;5082590;28;20568;-79
2023/10/25 02:48:36;;;;;;;22.40;14.73;;;11.60;83.90;;;;;;5088397;28;20468;-78
2023/10/25 02:51:05;;;;;;;24.00;15.73;;;11.60;83.90;;;;;;5067059;28;20480;-77
2023/10/25 02:53:33;;;;;;;24.00;14.70;;;11.60;84.00;;;;;;5087742;28;20464;-79
2023/10/25 02:56:02;;;;;;;23.73;14.33;;;11.60;84.10;;;;;;5086562;28;20544;-78
2023/10/25 02:58:30;;;;;;;24.43;14.60;;;11.70;84.20;;;;;;5085424;28;20504;-79
2023/10/25 03:01:00;;;;;;;24.70;15.40;;;11.70;84.20;;;;;;5074800;28;21013;-78
2023/10/25 03:03:31;;;;;;;23.07;15.30;;;11.70;84.20;;;;;;5068858;28;20461;-77
2023/10/25 03:06:00;;;;;;;25.47;14.00;;;11.70;84.20;;;;;;5086291;28;20476;-79
2023/10/25 03:08:31;;;;;;;25.00;15.47;;;11.70;84.20;;;;;;5090062;28;20474;-78
2023/10/25 03:11:00;;;;;;;26.27;15.30;;;11.70;84.00;;;;;;5086887;28;20465;-78
2023/10/25 03:13:28;;;;;;;23.90;14.80;;;11.70;84.20;;;;;;5070192;28;20461;-79
2023/10/25 03:15:57;;;;;;;23.20;14.70;;;11.70;84.40;;;;;;5072795;28;20457;-79
2023/10/25 03:18:26;;;;;;;25.87;14.47;;;11.70;84.40;;;;;;5075134;28;20997;-78
2023/10/25 03:20:55;;;;;;;25.90;16.10;;;11.70;84.40;;;;;;5093877;28;20562;-77
2023/10/25 03:23:23;;;;;;;24.80;15.30;;;11.70;84.50;;;;;;5095909;28;20508;-79
2023/10/25 03:25:51;;;;;;;24.60;14.60;;;11.70;84.50;;;;;;5071273;28;20497;-77
2023/10/25 03:28:19;;;;;;;27.10;16.20;;;11.80;84.50;;;;;;5097253;28;20468;-78
2023/10/25 03:30:47;;;;;;;26.27;16.27;;;11.80;84.60;;;;;;5075173;28;20566;-81
2023/10/25 03:33:15;;;;;;;23.50;14.67;;;11.80;84.50;;;;;;5075622;28;20480;-77
2023/10/25 03:35:51;;;;;;;23.77;15.10;;;11.80;84.70;;;;;;5079771;28;20554;-77
2023/10/25 03:38:21;;;;;;;19.50;12.30;;;11.80;84.70;;;;;;5086045;28;21300;-76
2023/10/25 03:41:00;;;;;;;22.90;13.47;;;11.80;84.60;;;;;;5089912;28;20463;-79
2023/10/25 03:43:28;;;;;;;23.10;14.73;;;11.90;84.50;;;;;;5076973;28;20488;-78
2023/10/25 03:45:56;;;;;;;22.10;13.87;;;11.80;84.50;;;;;;5091996;28;20471;-79
2023/10/25 03:48:24;;;;;;;22.13;13.87;;;11.80;84.30;;;;;;5074278;28;20468;-76
2023/10/25 03:50:52;;;;;;;28.37;17.37;;;11.80;84.30;;;;;;5094538;28;20483;-77
2023/10/25 03:53:22;;;;;;;22.57;14.20;;;11.80;84.50;;;;;;5072547;28;20970;-79
2023/10/25 03:55:55;;;;;;;25.83;16.40;;;11.70;84.40;;;;;;5077388;28;20476;-79
2023/10/25 03:58:23;;;;;;;35.67;18.77;;;11.70;84.50;;;;;;5097647;28;21094;-80
2023/10/25 04:00:58;;;;;;;37.13;20.87;;;11.70;84.60;;;;;;5091453;28;20561;-78
2023/10/25 04:03:27;;;;;;;31.20;19.23;;;11.70;84.80;;;;;;5090020;28;20468;-78
2023/10/25 04:05:55;;;;;;;31.90;18.53;;;11.70;84.80;;;;;;5097084;28;20567;-78
2023/10/25 04:08:25;;;;;;;40.67;21.83;;;11.80;85.00;;;;;;5082467;28;21036;-78
2023/10/25 04:10:54;;;;;;;34.97;20.80;;;11.80;85.00;;;;;;5094159;28;20460;-78
2023/10/25 04:13:22;;;;;;;34.93;19.60;;;11.80;85.10;;;;;;5088199;28;20485;-76
2023/10/25 04:15:55;;;;;;;32.90;20.00;;;11.80;85.20;;;;;;5097385;28;20460;-79
2023/10/25 04:18:24;;;;;;;31.80;19.83;;;11.90;85.30;;;;;;5090426;28;20476;-78
2023/10/25 04:20:52;;;;;;;35.30;20.93;;;11.90;85.20;;;;;;5072818;28;20469;-78
2023/10/25 04:23:20;;;;;;;32.47;19.17;;;12.00;85.20;;;;;;5073742;28;21030;-78
2023/10/25 04:25:50;;;;;;;39.17;23.87;;;12.00;85.10;;;;;;5090791;28;20461;-78
2023/10/25 04:28:19;;;;;;;38.63;21.10;;;12.00;85.30;;;;;;5095147;28;20465;-78
2023/10/25 04:30:47;;;;;;;32.83;21.27;;;12.00;85.20;;;;;;5093217;28;20456;-80
2023/10/25 04:33:15;;;;;;;38.77;21.57;;;12.00;85.30;;;;;;5089195;28;20499;-81
2023/10/25 04:35:45;;;;;;;38.13;21.40;;;12.00;85.30;;;;;;5087648;28;20544;-79
2023/10/25 04:38:13;;;;;;;34.27;20.90;;;12.00;85.30;;;;;;5090520;28;20563;-80
2023/10/25 04:40:42;;;;;;;36.00;20.67;;;12.00;85.30;;;;;;5089950;28;20467;-80
2023/10/25 04:43:11;;;;;;;31.43;18.73;;;12.00;85.50;;;;;;5089342;28;20545;-79
2023/10/25 04:45:39;;;;;;;33.83;20.40;;;12.10;85.50;;;;;;5083228;28;20849;-77
2023/10/25 04:48:07;;;;;;;37.33;21.90;;;12.10;85.40;;;;;;5089800;28;20521;-79
2023/10/25 04:50:37;;;;;;;34.43;18.97;;;12.10;85.40;;;;;;5075376;28;20467;-79
2023/10/25 04:53:06;;;;;;;34.00;21.07;;;12.10;85.40;;;;;;5092601;28;20480;-80
2023/10/25 04:55:35;;;;;;;36.53;21.20;;;12.20;85.50;;;;;;5075305;28;20468;-79
2023/10/25 04:58:24;;;;;;;;;;;;;;;;;;;;;
2023/10/25 05:01:17;;;;;;;37.40;21.30;;;12.10;85.40;;;;;;5073824;28;20475;-81
2023/10/25 05:03:46;;;;;;;35.13;20.10;;;12.10;85.50;;;;;;5084189;28;20528;-82
2023/10/25 05:06:15;;;;;;;33.63;20.37;;;12.10;85.50;;;;;;5095744;28;21244;-79
2023/10/25 05:08:45;;;;;;;36.40;20.30;;;12.10;85.60;;;;;;5088300;28;20559;-79
2023/10/25 05:11:16;;;;;;;31.10;18.23;;;12.10;85.60;;;;;;5073106;28;20547;-82
2023/10/25 05:13:46;;;;;;;32.43;18.70;;;12.10;85.60;;;;;;5099339;28;20487;-79
2023/10/25 05:16:15;;;;;;;34.93;20.50;;;12.10;85.60;;;;;;5093593;28;20455;-80
2023/10/25 05:18:44;;;;;;;33.43;19.60;;;12.10;85.60;;;;;;5092491;28;20533;-78
2023/10/25 05:21:16;;;;;;;31.30;19.60;;;12.10;85.60;;;;;;5091413;28;21254;-79
2023/10/25 05:23:45;;;;;;;30.60;19.30;;;12.10;85.60;;;;;;5072812;28;20983;-80
2023/10/25 05:26:14;;;;;;;35.10;20.40;;;12.10;85.60;;;;;;5093414;28;20469;-79
2023/10/25 05:28:43;;;;;;;32.50;19.50;;;12.10;85.70;;;;;;5094884;28;20468;-79
2023/10/25 05:31:17;;;;;;;29.67;18.63;;;12.10;85.80;;;;;;5092593;28;20571;-80
2023/10/25 05:33:46;;;;;;;32.07;19.93;;;12.10;85.80;;;;;;5091008;28;20506;-81
2023/10/25 05:36:15;;;;;;;31.60;19.23;;;12.10;85.80;;;;;;5087480;28;20473;-79
2023/10/25 05:38:44;;;;;;;34.30;18.87;;;12.10;85.70;;;;;;5083199;28;20456;-80
2023/10/25 05:41:16;;;;;;;27.97;18.13;;;12.10;85.70;;;;;;5069531;28;20560;-79
2023/10/25 05:43:47;;;;;;;33.70;19.53;;;12.10;85.70;;;;;;5085273;28;20942;-81
2023/10/25 05:46:17;;;;;;;32.57;18.53;;;12.10;85.80;;;;;;5086891;28;20459;-78
2023/10/25 05:48:45;;;;;;;29.77;18.53;;;12.10;85.80;;;;;;5091368;28;20536;-79
2023/10/25 05:51:14;;;;;;;30.20;17.90;;;12.10;85.80;;;;;;5087590;28;21076;-80
2023/10/25 05:53:43;;;;;;;37.90;20.03;;;12.20;85.80;;;;;;5090820;28;20481;-79
2023/10/25 05:56:11;;;;;;;32.33;18.90;;;12.20;85.80;;;;;;5094389;28;20462;-81
2023/10/25 05:58:40;;;;;;;35.03;20.27;;;12.20;85.90;;;;;;5088795;28;20462;-81
2023/10/25 06:01:10;;;;;;;37.73;21.17;;;12.20;85.90;;;;;;5095729;28;20487;-81
2023/10/25 06:03:45;;;;;;;31.57;18.43;;;12.20;85.90;;;;;;5080468;28;20588;-80
2023/10/25 06:06:15;;;;;;;30.90;18.10;;;12.20;85.90;;;;;;5092557;28;20562;-78
2023/10/25 06:08:45;;;;;;;33.20;18.50;;;12.30;85.90;;;;;;5094435;28;20449;-80
2023/10/25 06:11:14;;;;;;;33.00;17.87;;;12.30;85.90;;;;;;5075440;28;20475;-79
2023/10/25 06:13:42;;;;;;;31.60;17.63;;;12.30;85.90;;;;;;5075454;28;20982;-79
2023/10/25 06:16:10;;;;;;;32.47;18.20;;;12.30;85.90;;;;;;5087931;28;20452;-79
2023/10/25 06:18:39;;;;;;;25.80;16.40;;;12.30;85.90;;;;;;5097453;28;20481;-79
2023/10/25 06:21:07;;;;;;;26.13;15.90;;;12.40;85.80;;;;;;5095201;28;20474;-80
2023/10/25 06:23:36;;;;;;;36.30;15.73;;;12.40;85.80;;;;;;5093499;28;20561;-78
2023/10/25 06:26:04;;;;;;;33.27;16.90;;;12.40;85.80;;;;;;5076206;28;20459;-78
2023/10/25 06:28:41;;;;;;;28.20;15.30;;;12.40;85.90;;;;;;5093215;28;20825;-79
2023/10/25 06:31:11;;;;;;;30.30;16.50;;;12.40;85.90;;;;;;5081182;28;20556;-80
2023/10/25 06:33:41;;;;;;;27.90;15.23;;;12.40;85.90;;;;;;5094846;28;20530;-79
2023/10/25 06:36:10;;;;;;;36.37;17.10;;;12.40;85.90;;;;;;5089967;28;20890;-80
2023/10/25 06:38:39;;;;;;;27.30;15.33;;;12.40;85.90;;;;;;5089429;28;20510;-81
2023/10/25 06:41:14;;;;;;;29.13;15.23;;;12.40;85.90;;;;;;5091515;28;20519;-78
2023/10/25 06:43:43;;;;;;;30.53;16.80;;;12.40;85.90;;;;;;5091968;28;20483;-79
2023/10/25 06:46:12;;;;;;;26.30;14.80;;;12.50;86.00;;;;;;5098229;28;20666;-80
2023/10/25 06:48:42;;;;;;;27.83;15.23;;;12.50;86.00;;;;;;5091302;28;20451;-79
2023/10/25 06:51:12;;;;;;;27.83;16.10;;;12.50;86.00;;;;;;5090439;28;20461;-80
2023/10/25 06:53:40;;;;;;;26.13;14.83;;;12.50;86.00;;;;;;5089190;28;20559;-78
2023/10/25 06:56:09;;;;;;;25.00;15.10;;;12.60;86.00;;;;;;5093011;28;20460;-80
2023/10/25 06:58:38;;;;;;;25.60;13.60;;;12.60;86.00;;;;;;5092185;28;20448;-79
2023/10/25 07:01:07;;;;;;;23.30;13.93;;;12.60;86.00;;;;;;5094847;28;20960;-81
2023/10/25 07:03:37;;;;;;;31.40;16.00;;;12.60;85.90;;;;;;5085886;28;20456;-79
2023/10/25 07:06:07;;;;;;;28.20;15.97;;;12.60;86.00;;;;;;5073201;28;20525;-81
2023/10/25 07:08:36;;;;;;;24.50;13.80;;;12.70;85.90;;;;;;5062550;28;20557;-81
2023/10/25 07:11:04;;;;;;;26.90;15.50;;;12.70;85.80;;;;;;5090484;28;21226;-78
2023/10/25 07:13:38;;;;;;;29.33;16.43;;;12.70;85.80;;;;;;5071119;28;20465;-79
2023/10/25 07:16:07;;;;;;;32.13;18.73;;;12.70;85.60;;;;;;5093395;28;20452;-77
2023/10/25 07:18:36;;;;;;;32.60;18.70;;;12.60;85.60;;;;;;5093407;28;20492;-80
2023/10/25 07:21:08;;;;;;;41.50;23.37;;;12.60;85.70;;;;;;5092927;28;20574;-78
2023/10/25 07:23:36;;;;;;;37.90;22.77;;;12.60;86.00;;;;;;5074730;28;20480;-79
2023/10/25 07:26:05;;;;;;;29.27;17.77;;;12.60;86.00;;;;;;5091908;28;20543;-80
2023/10/25 07:28:33;;;;;;;30.23;18.67;;;12.70;85.90;;;;;;5092713;28;20455;-78
2023/10/25 07:31:01;;;;;;;28.13;16.93;;;12.70;86.00;;;;;;5074050;28;20555;-78
2023/10/25 07:33:30;;;;;;;30.10;16.97;;;12.70;85.90;;;;;;5090474;28;20484;-80
2023/10/25 07:35:59;;;;;;;28.10;15.80;;;12.60;85.90;;;;;;5087415;28;21235;-80
2023/10/25 07:38:28;;;;;;;28.03;17.50;;;12.60;86.10;;;;;;5073690;28;20958;-78
2023/10/25 07:40:56;;;;;;;31.30;17.77;;;12.60;86.20;;;;;;5090179;28;21026;-80
2023/10/25 07:43:24;;;;;;;26.87;16.00;;;12.60;86.20;;;;;;5094040;28;20543;-79
2023/10/25 07:45:52;;;;;;;24.07;15.23;;;12.60;86.10;;;;;;5077468;28;20677;-79
2023/10/25 07:48:23;;;;;;;27.30;16.07;;;12.50;86.20;;;;;;5093117;28;20552;-78
2023/10/25 07:50:51;;;;;;;30.03;18.43;;;12.50;86.30;;;;;;5092315;28;20471;-78
2023/10/25 07:53:19;;;;;;;29.40;18.10;;;12.50;86.30;;;;;;5089100;28;21033;-80
2023/10/25 07:55:50;;;;;;;30.77;17.97;;;12.60;86.50;;;;;;5087934;28;21022;-80
2023/10/25 07:58:22;;;;;;;73.00;48.33;;;12.60;86.40;;;;;;5087569;28;20551;-78
2023/10/25 08:00:55;;;;;;;54.50;33.87;;;12.70;86.50;;;;;;5092436;28;20472;-80
2023/10/25 08:03:24;;;;;;;44.73;29.77;;;12.70;86.50;;;;;;5078638;28;21227;-79
2023/10/25 08:05:53;;;;;;;44.17;30.30;;;12.80;86.40;;;;;;5072325;28;20490;-79
2023/10/25 08:08:21;;;;;;;24.90;16.23;;;12.90;86.40;;;;;;5098794;28;20539;-79
2023/10/25 08:11:00;;;;;;;26.37;16.27;;;12.90;86.30;;;;;;5083892;28;20465;-80
2023/10/25 08:13:28;;;;;;;25.23;17.57;;;12.90;86.20;;;;;;5097655;28;20497;-81
2023/10/25 08:15:59;;;;;;;23.90;15.40;;;13.00;86.20;;;;;;5099886;28;20484;-78
2023/10/25 08:18:28;;;;;;;22.17;14.60;;;13.00;86.30;;;;;;5098132;28;20488;-79
2023/10/25 08:20:57;;;;;;;24.77;15.47;;;13.00;86.20;;;;;;5076535;28;20832;-79
2023/10/25 08:23:28;;;;;;;26.57;14.40;;;13.00;86.10;;;;;;5079892;28;20469;-79
2023/10/25 08:26:01;;;;;;;19.37;13.53;;;12.90;86.10;;;;;;5105786;28;20448;-80
2023/10/25 08:28:29;;;;;;;21.70;14.00;;;12.90;86.20;;;;;;5096533;28;21050;-78
2023/10/25 08:30:57;;;;;;;19.10;13.60;;;12.90;86.30;;;;;;5094343;28;20477;-80
2023/10/25 08:33:25;;;;;;;20.53;13.23;;;12.80;86.30;;;;;;5096654;28;20538;-80
2023/10/25 08:36:01;;;;;;;17.07;12.53;;;12.80;86.40;;;;;;5100140;28;20557;-78
2023/10/25 08:38:29;;;;;;;17.33;11.33;;;12.80;86.60;;;;;;5092803;28;20471;-79
2023/10/25 08:41:03;;;;;;;14.10;11.10;;;12.80;86.60;;;;;;5098721;28;20455;-80
2023/10/25 08:43:33;;;;;;;15.97;10.20;;;12.80;86.60;;;;;;5089329;28;20464;-78
2023/10/25 08:46:03;;;;;;;14.37;10.60;;;12.90;86.50;;;;;;5086942;28;20784;-78
2023/10/25 08:48:34;;;;;;;15.37;11.13;;;12.90;86.50;;;;;;5092609;28;20513;-78
2023/10/25 08:51:05;;;;;;;19.20;13.23;;;12.90;86.50;;;;;;5093055;28;20455;-79
2023/10/25 08:53:42;;;;;;;18.90;11.83;;;12.80;86.40;;;;;;5078438;28;20515;-79
2023/10/25 08:56:12;;;;;;;18.70;12.50;;;12.80;86.50;;;;;;5097131;28;20464;-79
2023/10/25 08:58:40;;;;;;;17.57;12.13;;;12.90;86.50;;;;;;5096160;28;20798;-79
2023/10/25 09:01:08;;;;;;;18.90;11.40;;;12.80;86.40;;;;;;5082935;28;20475;-78
2023/10/25 09:03:41;;;;;;;17.53;12.27;;;12.80;86.50;;;;;;5074781;28;20469;-79
2023/10/25 09:06:12;;;;;;;17.33;11.80;;;12.90;86.50;;;;;;5093406;28;21025;-80
2023/10/25 09:08:43;;;;;;;17.63;11.50;;;12.90;86.60;;;;;;5096209;28;20463;-78
2023/10/25 09:11:13;;;;;;;18.67;11.77;;;12.90;86.40;;;;;;5100500;28;20458;-79
2023/10/25 09:13:42;;;;;;;13.97;9.83;;;12.90;86.40;;;;;;5088966;28;21003;-80
2023/10/25 09:16:12;;;;;;;16.10;11.17;;;12.90;86.40;;;;;;5076443;28;20471;-79
2023/10/25 09:18:41;;;;;;;15.87;11.37;;;12.90;86.30;;;;;;5092036;28;20520;-79
2023/10/25 09:21:26;;;;;;;20.03;11.50;;;12.90;86.40;;;;;;5091785;28;20465;-79
2023/10/25 09:23:57;;;;;;;17.10;11.80;;;12.90;86.60;;;;;;5093700;28;20539;-81
2023/10/25 09:26:33;;;;;;;16.33;12.40;;;13.00;86.60;;;;;;5097463;28;21061;-80
2023/10/25 09:29:02;;;;;;;14.80;10.97;;;13.00;86.60;;;;;;5071795;28;20460;-78
2023/10/25 09:31:31;;;;;;;16.77;12.33;;;13.00;86.50;;;;;;5075901;28;20518;-79
2023/10/25 09:34:00;;;;;;;16.00;12.63;;;13.00;86.60;;;;;;5090461;28;20457;-78
2023/10/25 09:36:28;;;;;;;17.33;10.90;;;13.00;86.70;;;;;;5079546;28;20510;-81
2023/10/25 09:38:57;;;;;;;15.47;11.10;;;13.10;86.80;;;;;;5077198;28;20484;-79
2023/10/25 09:41:35;;;;;;;14.03;9.77;;;13.10;86.80;;;;;;5097179;28;20448;-79
2023/10/25 09:44:10;;;;;;;16.03;11.40;;;13.20;86.80;;;;;;5089402;28;20468;-79
2023/10/25 09:46:39;;;;;;;15.10;10.63;;;13.20;86.80;;;;;;5092052;28;20487;-79
2023/10/25 09:49:07;;;;;;;15.20;11.07;;;13.20;86.80;;;;;;5075558;28;20472;-80
2023/10/25 09:51:43;;;;;;;18.20;10.43;;;13.30;86.90;;;;;;5089907;28;20514;-78
2023/10/25 09:54:14;;;;;;;14.63;10.07;;;13.30;86.90;;;;;;5096613;28;20858;-78
2023/10/25 09:56:47;;;;;;;14.33;10.77;;;13.30;86.90;;;;;;5097652;28;20476;-78
2023/10/25 09:59:19;;;;;;;11.50;8.37;;;13.40;86.90;;;;;;5092100;28;20515;-79
2023/10/25 10:01:47;;;;;;;12.83;9.23;;;13.40;87.00;;;;;;5080026;28;20476;-80
2023/10/25 10:04:22;;;;;;;12.47;8.90;;;13.40;86.90;;;;;;5078295;28;20455;-78
2023/10/25 10:06:59;;;;;;;14.00;9.10;;;13.50;87.00;;;;;;5077340;28;21005;-78
2023/10/25 10:09:33;;;;;;;14.47;9.53;;;13.60;87.10;;;;;;5090748;28;20535;-79
2023/10/25 10:12:05;;;;;;;15.00;7.30;;;13.60;87.10;;;;;;5083037;28;20461;-79
2023/10/25 10:14:35;;;;;;;12.60;7.27;;;13.70;87.10;;;;;;5084694;28;20509;-80
2023/10/25 10:17:07;;;;;;;14.53;7.20;;;13.70;87.00;;;;;;5089253;28;20463;-78
2023/10/25 10:19:39;;;;;;;9.17;6.30;;;13.80;86.80;;;;;;5089748;28;20574;-79
2023/10/25 10:22:08;;;;;;;11.67;6.63;;;13.90;86.70;;;;;;5090277;28;20872;-79
2023/10/25 10:24:45;;;;;;;8.70;6.00;;;13.90;86.60;;;;;;5094659;28;20505;-78
2023/10/25 10:27:17;;;;;;;12.43;8.13;;;14.00;86.50;;;;;;5091263;28;20978;-78
2023/10/25 10:29:46;;;;;;;12.10;6.53;;;14.00;86.50;;;;;;5073440;28;20495;-79
2023/10/25 10:32:17;;;;;;;11.37;7.00;;;14.00;86.50;;;;;;5092535;28;20570;-77
2023/10/25 10:34:46;;;;;;;12.97;8.63;;;14.10;86.50;;;;;;5091775;28;20456;-78
2023/10/25 10:37:16;;;;;;;7.17;4.90;;;14.10;86.60;;;;;;5084978;28;20456;-78
2023/10/25 10:40:13;;;;;;;9.73;6.30;;;14.20;86.50;;;;;;5083141;28;20555;-77
2023/10/25 10:42:43;;;;;;;11.00;6.07;;;14.30;86.30;;;;;;5070525;28;20468;-78
2023/10/25 10:45:15;;;;;;;9.53;6.20;;;14.30;86.10;;;;;;5091581;28;20464;-78
2023/10/25 10:47:44;;;;;;;9.00;5.53;;;14.40;85.90;;;;;;5093217;28;20498;-77
2023/10/25 10:50:18;;;;;;;9.40;4.90;;;14.40;85.80;;;;;;5086714;28;20574;-77
2023/10/25 10:52:47;;;;;;;6.73;4.40;;;14.40;85.70;;;;;;5071722;28;20499;-79
2023/10/25 10:55:17;;;;;;;8.80;5.80;;;14.40;85.70;;;;;;5091742;28;20453;-77
2023/10/25 10:57:47;;;;;;;9.70;5.13;;;14.40;85.60;;;;;;5092959;28;20509;-78
2023/10/25 11:00:35;;;;;;;9.00;5.00;;;14.40;85.60;;;;;;5092635;28;20479;-78
2023/10/25 11:03:04;;;;;;;9.37;5.20;;;14.30;85.60;;;;;;5074592;28;20457;-80
2023/10/25 11:05:37;;;;;;;8.37;5.37;;;14.40;85.60;;;;;;5093544;28;20608;-77
2023/10/25 11:08:10;;;;;;;8.23;4.73;;;14.40;85.50;;;;;;5096056;28;20553;-78
2023/10/25 11:10:45;;;;;;;12.57;4.67;;;14.40;85.50;;;;;;5093591;28;20457;-80
2023/10/25 11:13:17;;;;;;;8.30;5.43;;;14.40;85.50;;;;;;5072332;28;20464;-77
2023/10/25 11:15:45;;;;;;;10.17;6.53;;;14.40;85.50;;;;;;5089021;28;20485;-78
2023/10/25 11:18:13;;;;;;;8.90;5.43;;;14.40;85.50;;;;;;5088962;28;20468;-78
2023/10/25 11:20:42;;;;;;;14.87;5.63;;;14.40;85.50;;;;;;5092360;28;20449;-79
2023/10/25 11:23:11;;;;;;;9.33;4.13;;;14.40;85.40;;;;;;5090486;28;20456;-77
2023/10/25 11:25:39;;;;;;;6.80;4.30;;;14.40;85.40;;;;;;5093948;28;21034;-78
2023/10/25 11:28:11;;;;;;;6.37;4.03;;;14.50;85.30;;;;;;5092772;28;20457;-78
2023/10/25 11:30:42;;;;;;;5.23;3.27;;;14.50;85.30;;;;;;5064367;28;20478;-77
2023/10/25 11:33:11;;;;;;;6.53;3.20;;;14.40;85.30;;;;;;5088725;28;20560;-78
2023/10/25 11:35:42;;;;;;;7.73;4.07;;;14.40;85.20;;;;;;5082759;28;20497;-77
2023/10/25 11:38:11;;;;;;;7.47;4.40;;;14.40;85.20;;;;;;5095426;28;20456;-78
2023/10/25 11:40:42;;;;;;;10.60;5.00;;;14.40;85.20;;;;;;5099067;28;20488;-78
2023/10/25 11:43:11;;;;;;;8.10;4.30;;;14.40;85.20;;;;;;5092154;28;20459;-76
2023/10/25 11:45:40;;;;;;;7.27;4.10;;;14.40;85.30;;;;;;5077897;28;20457;-78
2023/10/25 11:48:10;;;;;;;9.87;4.97;;;14.30;85.30;;;;;;5097899;28;20890;-77
2023/10/25 11:50:43;;;;;;;7.40;4.60;;;14.30;85.40;;;;;;5098869;28;20464;-77
2023/10/25 11:53:14;;;;;;;13.60;9.07;;;14.30;85.40;;;;;;5081271;28;20959;-76
2023/10/25 11:55:42;;;;;;;9.50;6.33;;;14.30;85.40;;;;;;5091954;28;20577;-77
2023/10/25 11:58:15;;;;;;;10.93;6.00;;;14.20;85.60;;;;;;5089198;28;20564;-77
2023/10/25 12:00:44;;;;;;;7.77;5.27;;;14.20;85.70;;;;;;5093863;28;20476;-77
2023/10/25 12:03:13;;;;;;;9.43;5.23;;;14.20;85.90;;;;;;5095869;28;20695;-78
2023/10/25 12:05:41;;;;;;;7.43;4.80;;;14.20;86.00;;;;;;5090202;28;21033;-79
2023/10/25 12:08:10;;;;;;;9.67;5.40;;;14.20;86.00;;;;;;5093077;28;20521;-79
2023/10/25 12:10:38;;;;;;;16.60;9.37;;;14.10;86.10;;;;;;5088980;28;20508;-78
2023/10/25 12:13:06;;;;;;;24.00;13.87;;;14.20;86.10;;;;;;5091691;28;20460;-78
2023/10/25 12:15:34;;;;;;;16.00;10.77;;;14.20;86.00;;;;;;5094224;28;20563;-79
2023/10/25 12:18:02;;;;;;;15.33;9.37;;;14.20;86.00;;;;;;5091727;28;20537;-79
2023/10/25 12:20:32;;;;;;;11.47;6.70;;;14.20;85.80;;;;;;5095939;28;20483;-79
2023/10/25 12:23:01;;;;;;;23.40;16.73;;;14.20;85.90;;;;;;5081771;28;20470;-78
2023/10/25 12:25:29;;;;;;;14.90;9.70;;;14.20;85.90;;;;;;5077406;28;20970;-78
2023/10/25 12:27:57;;;;;;;17.23;11.00;;;14.10;86.10;;;;;;5094467;28;20467;-78
2023/10/25 12:30:25;;;;;;;10.50;7.63;;;14.10;86.10;;;;;;5091877;28;20474;-78
2023/10/25 12:32:54;;;;;;;10.00;7.20;;;14.20;86.10;;;;;;5091603;28;20559;-78
2023/10/25 12:35:23;;;;;;;8.73;5.47;;;14.20;86.20;;;;;;5086163;28;20530;-79
2023/10/25 12:37:53;;;;;;;9.67;7.10;;;14.10;86.10;;;;;;5096157;28;21068;-79
2023/10/25 12:40:21;;;;;;;16.33;12.03;;;14.10;86.10;;;;;;5081692;28;20869;-78
2023/10/25 12:42:49;;;;;;;13.77;9.70;;;14.10;86.20;;;;;;5090480;28;21135;-80
2023/10/25 12:45:23;;;;;;;16.00;9.53;;;14.10;86.20;;;;;;5087384;28;20470;-79
2023/10/25 12:47:51;;;;;;;12.60;8.20;;;14.10;86.30;;;;;;5087140;28;20547;-79